createdAt,value
2017-12-25T00:00:20.504Z,4.85
2017-12-25T00:02:48.088Z,4.93
2017-12-25T00:05:16.466Z,4.82
2017-12-25T00:07:44.789Z,5.82
2017-12-25T00:10:12.353Z,5.15
2017-12-25T00:12:39.944Z,6.37
2017-12-25T00:15:07.544Z,5.97
2017-12-25T00:17:35.113Z,5.05
2017-12-25T00:20:02.735Z,5.15
2017-12-25T00:22:30.303Z,5.45
2017-12-25T00:24:58.665Z,5.80
2017-12-25T00:27:26.224Z,3.75
2017-12-25T00:29:53.821Z,5.60
2017-12-25T00:32:21.444Z,5.53
2017-12-25T00:34:49.002Z,4.50
2017-12-25T00:37:16.596Z,4.12
2017-12-25T00:39:44.974Z,4.25
2017-12-25T00:42:12.540Z,4.10
2017-12-25T00:44:40.865Z,4.07
2017-12-25T00:47:08.496Z,4.32
2017-12-25T00:49:36.056Z,3.85
2017-12-25T00:52:03.646Z,4.00
2017-12-25T00:54:31.241Z,4.10
2017-12-25T00:56:58.816Z,5.03
2017-12-25T00:59:27.181Z,4.60
2017-12-25T01:01:54.740Z,5.50
2017-12-25T01:04:22.345Z,5.53
2017-12-25T01:06:49.950Z,5.80
2017-12-25T01:09:17.502Z,5.15
2017-12-25T01:11:45.076Z,5.57
2017-12-25T01:14:12.665Z,6.10
2017-12-25T01:16:40.985Z,5.70
2017-12-25T01:19:08.568Z,5.30
2017-12-25T01:21:36.134Z,6.57
2017-12-25T01:24:03.738Z,5.82
2017-12-25T01:26:31.305Z,5.65
2017-12-25T01:28:58.913Z,5.90
2017-12-25T01:31:26.508Z,6.87
2017-12-25T01:33:54.823Z,6.35
2017-12-25T01:36:22.394Z,6.87
2017-12-25T01:38:50.002Z,6.10
2017-12-25T01:41:17.573Z,6.60
2017-12-25T01:43:45.149Z,5.43
2017-12-25T01:46:12.706Z,6.65
2017-12-25T01:48:40.316Z,6.40
2017-12-25T01:51:07.856Z,6.95
2017-12-25T01:53:37.072Z,6.80
2017-12-25T01:56:04.685Z,7.57
2017-12-25T01:58:42.037Z,6.47
2017-12-25T02:01:17.012Z,7.62
2017-12-25T02:03:44.571Z,6.60
2017-12-25T02:06:23.978Z,7.82
2017-12-25T02:08:52.297Z,7.47
2017-12-25T02:11:19.849Z,8.90
2017-12-25T02:13:47.441Z,7.60
2017-12-25T02:16:15.077Z,7.15
2017-12-25T02:18:42.633Z,7.53
2017-12-25T02:21:10.222Z,7.55
2017-12-25T02:23:37.820Z,7.43
2017-12-25T02:26:05.427Z,7.05
2017-12-25T02:28:33.753Z,6.47
2017-12-25T02:31:01.326Z,6.45
2017-12-25T02:33:29.684Z,7.50
2017-12-25T02:35:57.241Z,6.72
2017-12-25T02:38:24.908Z,5.55
2017-12-25T02:40:52.480Z,5.50
2017-12-25T02:43:20.065Z,5.37
2017-12-25T02:45:47.628Z,5.05
2017-12-25T02:48:15.215Z,6.78
2017-12-25T02:50:42.794Z,5.60
2017-12-25T02:53:10.423Z,6.75
2017-12-25T02:55:37.983Z,7.32
2017-12-25T02:58:05.579Z,7.72
2017-12-25T03:00:33.137Z,8.23
2017-12-25T03:03:00.741Z,7.18
2017-12-25T03:05:29.073Z,8.85
2017-12-25T03:07:56.673Z,8.80
2017-12-25T03:10:25.001Z,8.60
2017-12-25T03:12:52.572Z,8.73
2017-12-25T03:15:20.164Z,9.23
2017-12-25T03:17:48.513Z,8.80
2017-12-25T03:20:16.108Z,9.18
2017-12-25T03:22:44.435Z,9.70
2017-12-25T03:25:12.807Z,8.90
2017-12-25T03:27:40.410Z,9.27
2017-12-25T03:30:07.982Z,8.68
2017-12-25T03:32:35.569Z,9.88
2017-12-25T03:35:03.195Z,8.35
2017-12-25T03:37:30.780Z,9.35
2017-12-25T03:39:59.096Z,8.73
2017-12-25T03:42:26.686Z,9.10
2017-12-25T03:44:54.292Z,8.88
2017-12-25T03:47:21.900Z,9.27
2017-12-25T03:49:49.458Z,9.55
2017-12-25T03:52:17.063Z,9.07
2017-12-25T03:54:44.628Z,9.05
2017-12-25T03:57:12.960Z,9.50
2017-12-25T03:59:40.560Z,10.30
2017-12-25T04:02:10.584Z,9.25
2017-12-25T04:04:38.914Z,9.63
2017-12-25T04:07:06.506Z,9.15
2017-12-25T04:09:34.114Z,9.85
2017-12-25T04:12:02.425Z,11.27
2017-12-25T04:14:30.026Z,10.35
2017-12-25T04:16:57.599Z,9.52
2017-12-25T04:19:25.196Z,9.80
2017-12-25T04:21:52.757Z,10.15
2017-12-25T04:24:20.344Z,10.40
2017-12-25T04:26:47.906Z,9.25
2017-12-25T04:29:15.506Z,8.98
2017-12-25T04:31:43.105Z,9.77
2017-12-25T04:34:10.680Z,10.57
2017-12-25T04:36:38.277Z,10.30
2017-12-25T04:39:05.885Z,11.00
2017-12-25T04:41:33.500Z,10.93
2017-12-25T04:44:01.058Z,10.65
2017-12-25T04:46:29.378Z,12.10
2017-12-25T04:48:57.008Z,10.32
2017-12-25T04:51:24.575Z,9.13
2017-12-25T04:53:52.147Z,10.50
2017-12-25T04:56:19.761Z,9.60
2017-12-25T04:58:48.091Z,9.98
2017-12-25T05:01:15.653Z,10.27
2017-12-25T05:03:43.250Z,10.57
2017-12-25T05:06:10.807Z,10.45
2017-12-25T05:08:38.377Z,9.57
2017-12-25T05:11:06.757Z,10.63
2017-12-25T05:13:35.133Z,9.57
2017-12-25T05:16:02.700Z,9.60
2017-12-25T05:18:30.315Z,10.18
2017-12-25T05:20:57.876Z,10.30
2017-12-25T05:23:25.469Z,10.23
2017-12-25T05:25:53.045Z,9.90
2017-12-25T05:28:21.408Z,9.82
2017-12-25T05:30:49.011Z,11.23
2017-12-25T05:33:16.580Z,10.95
2017-12-25T05:35:44.193Z,10.35
2017-12-25T05:38:11.798Z,10.50
2017-12-25T05:40:39.354Z,10.80
2017-12-25T05:43:06.968Z,8.98
2017-12-25T05:45:34.520Z,10.00
2017-12-25T05:48:02.143Z,9.30
2017-12-25T05:50:29.714Z,8.38
2017-12-25T05:52:57.308Z,8.10
2017-12-25T05:55:24.894Z,7.50
2017-12-25T05:57:53.256Z,6.45
2017-12-25T06:00:21.624Z,6.68
2017-12-25T06:02:49.217Z,6.80
2017-12-25T06:05:16.809Z,6.85
2017-12-25T06:07:45.153Z,6.03
2017-12-25T06:10:13.512Z,6.20
2017-12-25T06:12:41.079Z,5.95
2017-12-25T06:15:08.670Z,4.85
2017-12-25T06:17:36.233Z,6.37
2017-12-25T06:20:03.799Z,5.62
2017-12-25T06:22:31.394Z,4.60
2017-12-25T06:24:59.010Z,5.20
2017-12-25T06:27:26.586Z,6.75
2017-12-25T06:29:54.150Z,5.22
2017-12-25T06:32:21.749Z,5.90
2017-12-25T06:34:49.310Z,5.95
2017-12-25T06:37:16.917Z,5.03
2017-12-25T06:39:45.262Z,6.20
2017-12-25T06:42:12.889Z,6.12
2017-12-25T06:44:40.448Z,7.10
2017-12-25T06:47:08.006Z,5.93
2017-12-25T06:49:35.594Z,5.80
2017-12-25T06:52:03.190Z,7.20
2017-12-25T06:54:31.530Z,6.50
2017-12-25T06:56:59.137Z,6.60
2017-12-25T06:59:26.721Z,6.55
2017-12-25T07:01:54.322Z,6.43
2017-12-25T07:04:21.891Z,6.85
2017-12-25T07:06:49.446Z,7.07
2017-12-25T07:09:17.063Z,7.05
2017-12-25T07:11:45.401Z,6.47
2017-12-25T07:14:13.732Z,6.72
2017-12-25T07:16:41.349Z,6.50
2017-12-25T07:19:09.700Z,5.82
2017-12-25T07:21:37.298Z,6.90
2017-12-25T07:24:05.609Z,6.90
2017-12-25T07:26:33.203Z,6.87
2017-12-25T07:29:00.795Z,6.37
2017-12-25T07:31:29.115Z,7.50
2017-12-25T07:33:56.713Z,5.85
2017-12-25T07:36:24.329Z,7.40
2017-12-25T07:38:51.899Z,6.82
2017-12-25T07:41:19.467Z,6.40
2017-12-25T07:43:47.073Z,6.43
2017-12-25T07:46:15.406Z,7.25
2017-12-25T07:48:43.007Z,6.65
2017-12-25T07:51:11.356Z,6.85
2017-12-25T07:53:38.940Z,7.60
2017-12-25T07:56:06.541Z,8.93
2017-12-25T07:58:34.108Z,8.50
2017-12-25T08:01:01.712Z,9.15
2017-12-25T08:03:29.269Z,9.20
2017-12-25T08:05:56.927Z,10.55
2017-12-25T08:08:24.498Z,11.20
2017-12-25T08:10:52.081Z,9.73
2017-12-25T08:13:20.482Z,10.40
2017-12-25T08:15:48.038Z,9.88
2017-12-25T08:18:15.663Z,10.98
2017-12-25T08:20:43.232Z,10.77
2017-12-25T08:23:10.863Z,10.68
2017-12-25T08:25:38.430Z,10.63
2017-12-25T08:28:05.991Z,10.63
2017-12-25T08:30:33.588Z,10.68
2017-12-25T08:33:01.936Z,11.25
2017-12-25T08:35:29.529Z,9.93
2017-12-25T08:37:57.888Z,11.35
2017-12-25T08:40:25.495Z,11.30
2017-12-25T08:42:53.075Z,11.43
2017-12-25T08:45:20.643Z,11.93
2017-12-25T08:47:48.255Z,13.27
2017-12-25T08:50:15.820Z,11.70
2017-12-25T08:52:43.430Z,12.13
2017-12-25T08:55:11.029Z,11.57
2017-12-25T08:57:39.406Z,13.27
2017-12-25T09:00:07.735Z,12.23
2017-12-25T09:02:35.322Z,12.50
2017-12-25T09:05:02.886Z,11.90
2017-12-25T09:07:30.522Z,12.37
2017-12-25T09:09:58.118Z,12.32
2017-12-25T09:12:25.733Z,11.20
2017-12-25T09:14:53.324Z,11.85
2017-12-25T09:17:20.897Z,10.98
2017-12-25T09:19:48.516Z,11.40
2017-12-25T09:22:16.121Z,10.75
2017-12-25T09:24:43.674Z,10.82
2017-12-25T09:27:11.232Z,11.40
2017-12-25T09:29:38.845Z,12.73
2017-12-25T09:32:06.417Z,10.75
2017-12-25T09:34:33.975Z,11.65
2017-12-25T09:37:01.570Z,11.95
2017-12-25T09:39:29.154Z,11.63
2017-12-25T09:41:57.528Z,12.63
2017-12-25T09:44:26.017Z,11.80
2017-12-25T09:46:54.349Z,11.60
2017-12-25T09:49:21.950Z,12.23
2017-12-25T09:51:50.326Z,10.35
2017-12-25T09:54:18.705Z,11.65
2017-12-25T09:56:46.305Z,11.57
2017-12-25T09:59:13.905Z,11.70
2017-12-25T10:01:41.489Z,12.05
2017-12-25T10:04:09.856Z,13.43
2017-12-25T10:06:37.411Z,12.85
2017-12-25T10:09:05.009Z,11.80
2017-12-25T10:11:32.642Z,13.10
2017-12-25T10:14:00.229Z,12.75
2017-12-25T10:16:28.566Z,11.70
2017-12-25T10:18:56.184Z,11.60
2017-12-25T10:21:24.540Z,12.07
2017-12-25T10:23:52.918Z,12.85
2017-12-25T10:26:21.245Z,13.07
2017-12-25T10:28:48.838Z,11.88
2017-12-25T10:31:16.450Z,12.88
2017-12-25T10:33:44.046Z,12.68
2017-12-25T10:36:11.645Z,13.05
2017-12-25T10:38:40.007Z,12.60
2017-12-25T10:41:07.581Z,12.80
2017-12-25T10:43:35.176Z,12.95
2017-12-25T10:46:02.785Z,13.35
2017-12-25T10:48:30.394Z,13.10
2017-12-25T10:50:57.990Z,12.40
2017-12-25T10:53:25.579Z,12.07
2017-12-25T10:55:53.176Z,12.48
2017-12-25T10:58:20.733Z,11.75
2017-12-25T11:00:54.124Z,12.52
2017-12-25T11:03:21.684Z,11.40
2017-12-25T11:05:49.312Z,13.07
2017-12-25T11:08:16.870Z,11.27
2017-12-25T11:10:44.434Z,11.38
2017-12-25T11:13:12.102Z,12.15
2017-12-25T11:15:39.624Z,11.38
2017-12-25T11:18:07.244Z,12.70
2017-12-25T11:20:35.573Z,12.20
2017-12-25T11:23:03.132Z,12.37
2017-12-25T11:25:30.746Z,10.20
2017-12-25T11:27:59.061Z,11.18
2017-12-25T11:30:26.657Z,13.13
2017-12-25T11:32:54.218Z,12.40
2017-12-25T11:35:21.822Z,11.10
2017-12-25T11:37:49.392Z,11.45
2017-12-25T11:40:16.961Z,12.25
2017-12-25T11:42:44.554Z,11.98
2017-12-25T11:45:12.105Z,13.27
2017-12-25T11:47:39.709Z,13.70
2017-12-25T11:50:07.313Z,11.90
2017-12-25T11:52:34.876Z,11.60
2017-12-25T11:55:02.480Z,11.65
2017-12-25T11:57:30.829Z,12.25
2017-12-25T11:59:58.422Z,11.77
2017-12-25T12:02:26.749Z,11.60
2017-12-25T12:04:54.360Z,11.65
2017-12-25T12:07:22.724Z,11.80
2017-12-25T12:09:50.317Z,11.88
2017-12-25T12:12:17.912Z,12.18
2017-12-25T12:14:45.492Z,11.18
2017-12-25T12:17:13.101Z,11.12
2017-12-25T12:19:40.662Z,10.55
2017-12-25T12:22:08.248Z,10.93
2017-12-25T12:24:35.836Z,12.02
2017-12-25T12:27:03.389Z,10.05
2017-12-25T12:29:30.995Z,10.45
2017-12-25T12:31:59.325Z,9.85
2017-12-25T12:34:26.920Z,10.38
2017-12-25T12:36:55.263Z,10.20
2017-12-25T12:39:22.943Z,10.60
2017-12-25T12:41:50.536Z,11.10
2017-12-25T12:44:18.109Z,11.05
2017-12-25T12:46:45.699Z,10.85
2017-12-25T12:49:13.260Z,10.60
2017-12-25T12:51:40.884Z,10.50
2017-12-25T12:54:09.220Z,10.63
2017-12-25T12:56:36.816Z,10.63
2017-12-25T12:59:04.417Z,10.25
2017-12-25T13:01:31.976Z,10.40
2017-12-25T13:03:59.592Z,9.10
2017-12-25T13:06:27.968Z,9.60
2017-12-25T13:08:55.542Z,8.82
2017-12-25T13:11:23.910Z,9.38
2017-12-25T13:13:52.262Z,10.40
2017-12-25T13:16:19.869Z,10.70
2017-12-25T13:18:47.438Z,9.43
2017-12-25T13:21:15.000Z,10.35
2017-12-25T13:23:42.652Z,10.65
2017-12-25T13:26:10.207Z,10.98
2017-12-25T13:28:38.544Z,10.95
2017-12-25T13:31:06.137Z,10.55
2017-12-25T13:33:34.489Z,10.57
2017-12-25T13:36:02.044Z,8.95
2017-12-25T13:38:29.650Z,11.93
2017-12-25T13:40:58.018Z,11.23
2017-12-25T13:43:26.361Z,10.73
2017-12-25T13:45:53.922Z,11.23
2017-12-25T13:48:21.533Z,10.40
2017-12-25T13:50:49.856Z,11.80
2017-12-25T13:53:17.451Z,11.25
2017-12-25T13:55:45.829Z,10.77
2017-12-25T13:58:13.452Z,10.68
2017-12-25T14:00:41.040Z,11.80
2017-12-25T14:03:08.602Z,10.93
2017-12-25T14:05:36.209Z,10.20
2017-12-25T14:08:03.820Z,10.90
2017-12-25T14:10:31.380Z,11.68
2017-12-25T14:12:58.981Z,12.00
2017-12-25T14:15:26.558Z,12.10
2017-12-25T14:17:54.181Z,12.02
2017-12-25T14:20:22.525Z,11.07
2017-12-25T14:22:50.141Z,12.65
2017-12-25T14:25:17.726Z,11.73
2017-12-25T14:27:45.287Z,12.35
2017-12-25T14:30:13.660Z,11.00
2017-12-25T14:32:41.989Z,11.98
2017-12-25T14:35:10.383Z,12.15
2017-12-25T14:37:38.704Z,11.38
2017-12-25T14:40:06.265Z,11.70
2017-12-25T14:42:33.865Z,11.73
2017-12-25T14:45:01.404Z,16.90
2017-12-25T14:47:28.989Z,12.90
2017-12-25T14:49:57.333Z,11.57
2017-12-25T14:52:24.932Z,13.38
2017-12-25T14:54:53.264Z,12.10
2017-12-25T14:57:20.860Z,12.95
2017-12-25T14:59:48.411Z,9.95
2017-12-25T15:02:15.980Z,12.10
2017-12-25T15:04:43.612Z,12.63
2017-12-25T15:07:11.199Z,12.60
2017-12-25T15:09:38.849Z,11.60
2017-12-25T15:12:06.450Z,12.30
2017-12-25T15:14:34.786Z,11.60
2017-12-25T15:17:02.360Z,10.45
2017-12-25T15:19:29.965Z,11.20
2017-12-25T15:21:57.530Z,11.18
2017-12-25T15:24:25.150Z,10.93
2017-12-25T15:26:52.703Z,12.25
2017-12-25T15:29:20.275Z,10.93
2017-12-25T15:31:48.653Z,11.32
2017-12-25T15:34:16.216Z,12.45
2017-12-25T15:36:44.582Z,12.60
2017-12-25T15:39:12.964Z,12.45
2017-12-25T15:41:40.584Z,13.40
2017-12-25T15:44:08.174Z,14.85
2017-12-25T15:46:35.746Z,13.75
2017-12-25T15:49:04.150Z,14.63
2017-12-25T15:51:32.518Z,14.30
2017-12-25T15:54:00.080Z,13.27
2017-12-25T15:56:28.419Z,14.40
2017-12-25T15:58:56.046Z,14.10
2017-12-25T16:01:23.649Z,15.32
2017-12-25T16:03:51.219Z,14.90
2017-12-25T16:06:18.822Z,13.70
2017-12-25T16:08:47.205Z,14.38
2017-12-25T16:11:15.548Z,12.65
2017-12-25T16:13:43.136Z,12.90
2017-12-25T16:16:11.519Z,13.43
2017-12-25T16:18:39.837Z,11.45
2017-12-25T16:21:07.397Z,12.63
2017-12-25T16:23:34.995Z,11.23
2017-12-25T16:26:02.570Z,11.10
2017-12-25T16:28:30.910Z,9.55
2017-12-25T16:30:58.506Z,8.85
2017-12-25T16:33:26.053Z,9.70
2017-12-25T16:35:53.654Z,9.30
2017-12-25T16:38:21.253Z,8.52
2017-12-25T16:40:48.806Z,8.82
2017-12-25T16:43:16.422Z,11.15
2017-12-25T16:45:44.758Z,10.45
2017-12-25T16:48:12.344Z,9.77
2017-12-25T16:50:40.676Z,12.75
2017-12-25T16:53:08.300Z,12.77
2017-12-25T16:55:36.675Z,14.63
2017-12-25T16:58:05.046Z,14.85
2017-12-25T17:00:33.386Z,12.65
2017-12-25T17:03:00.988Z,13.68
2017-12-25T17:05:29.378Z,14.45
2017-12-25T17:07:57.711Z,16.87
2017-12-25T17:10:27.264Z,15.93
2017-12-25T17:12:57.883Z,14.85
2017-12-25T17:15:28.504Z,13.75
2017-12-25T17:17:58.349Z,14.75
2017-12-25T17:20:30.456Z,12.57
2017-12-25T17:23:00.296Z,13.40
2017-12-25T17:25:31.022Z,13.30
2017-12-25T17:27:59.413Z,12.48
2017-12-25T17:30:27.013Z,13.05
2017-12-25T17:32:54.573Z,14.70
2017-12-25T17:35:22.165Z,15.25
2017-12-25T17:37:49.756Z,14.50
2017-12-25T17:40:17.326Z,13.82
2017-12-25T17:42:45.719Z,13.10
2017-12-25T17:45:14.080Z,13.65
2017-12-25T17:47:41.680Z,13.15
2017-12-25T17:50:09.258Z,13.88
2017-12-25T17:52:36.871Z,13.82
2017-12-25T17:55:04.449Z,13.15
2017-12-25T17:57:32.834Z,13.93
2017-12-25T18:00:00.434Z,14.60
2017-12-25T18:02:28.014Z,13.30
2017-12-25T18:04:55.611Z,13.57
2017-12-25T18:07:23.193Z,13.23
2017-12-25T18:09:50.809Z,13.35
2017-12-25T18:12:19.153Z,13.65
2017-12-25T18:14:46.734Z,13.15
2017-12-25T18:17:14.333Z,15.25
2017-12-25T18:19:41.969Z,14.38
2017-12-25T18:22:09.516Z,14.90
2017-12-25T18:24:37.145Z,15.07
2017-12-25T18:27:04.745Z,15.73
2017-12-25T18:29:32.328Z,15.15
2017-12-25T18:32:00.718Z,15.85
2017-12-25T18:34:28.317Z,17.87
2017-12-25T18:36:55.876Z,18.75
2017-12-25T18:39:23.481Z,19.67
2017-12-25T18:41:51.814Z,18.70
2017-12-25T18:44:19.412Z,23.98
2017-12-25T18:46:46.988Z,21.40
2017-12-25T18:49:15.378Z,21.73
2017-12-25T18:51:43.716Z,20.08
2017-12-25T18:54:11.293Z,20.20
2017-12-25T18:56:38.898Z,17.95
2017-12-25T18:59:06.458Z,21.50
2017-12-25T19:01:35.330Z,21.25
2017-12-25T19:04:02.947Z,20.67
2017-12-25T19:06:30.558Z,18.35
2017-12-25T19:08:58.301Z,16.60
2017-12-25T19:11:25.942Z,16.12
2017-12-25T19:13:53.541Z,16.50
2017-12-25T19:16:21.864Z,15.88
2017-12-25T19:18:49.458Z,15.55
2017-12-25T19:21:17.017Z,19.02
2017-12-25T19:23:44.611Z,18.33
2017-12-25T19:26:12.201Z,17.58
2017-12-25T19:28:39.760Z,19.10
2017-12-25T19:31:07.362Z,19.15
2017-12-25T19:33:35.719Z,19.00
2017-12-25T19:36:03.332Z,18.90
2017-12-25T19:38:30.918Z,17.17
2017-12-25T19:40:58.517Z,18.58
2017-12-25T19:43:26.121Z,19.70
2017-12-25T19:45:53.694Z,16.33
2017-12-25T19:48:21.290Z,22.30
2017-12-25T19:50:48.852Z,22.77
2017-12-25T19:53:16.462Z,21.50
2017-12-25T19:55:44.069Z,20.50
2017-12-25T19:58:11.682Z,20.20
2017-12-25T20:00:39.253Z,20.25
2017-12-25T20:03:06.824Z,21.27
2017-12-25T20:05:34.441Z,22.37
2017-12-25T20:08:02.784Z,21.25
2017-12-25T20:10:30.341Z,20.85
2017-12-25T20:12:57.954Z,21.85
2017-12-25T20:15:25.530Z,22.20
2017-12-25T20:17:53.128Z,20.73
2017-12-25T20:20:20.747Z,21.08
2017-12-25T20:22:48.348Z,21.73
2017-12-25T20:25:15.904Z,19.37
2017-12-25T20:27:43.482Z,16.42
2017-12-25T20:30:11.084Z,15.38
2017-12-25T20:32:38.641Z,15.45
2017-12-25T20:35:06.223Z,15.32
2017-12-25T20:37:33.833Z,17.77
2017-12-25T20:40:01.399Z,21.92
2017-12-25T20:42:28.977Z,22.62
2017-12-25T20:44:56.571Z,25.70
2017-12-25T20:47:24.136Z,27.23
2017-12-25T20:49:51.737Z,24.12
2017-12-25T20:52:19.315Z,24.90
2017-12-25T20:54:47.691Z,24.12
2017-12-25T20:57:16.068Z,22.48
2017-12-25T20:59:44.447Z,18.90
2017-12-25T21:02:16.009Z,19.35
2017-12-25T21:04:44.369Z,19.98
2017-12-25T21:07:11.932Z,20.55
2017-12-25T21:09:40.268Z,20.52
2017-12-25T21:12:07.864Z,19.17
2017-12-25T21:14:35.468Z,21.65
2017-12-25T21:17:03.050Z,18.30
2017-12-25T21:19:30.659Z,21.75
2017-12-25T21:21:59.006Z,21.95
2017-12-25T21:24:26.625Z,21.65
2017-12-25T21:26:54.223Z,24.15
2017-12-25T21:29:21.784Z,21.33
2017-12-25T21:31:49.381Z,21.05
2017-12-25T21:34:16.954Z,19.60
2017-12-25T21:36:44.576Z,21.73
2017-12-25T21:39:12.194Z,20.65
2017-12-25T21:41:39.760Z,21.58
2017-12-25T21:44:07.330Z,22.25
2017-12-25T21:46:34.938Z,21.73
2017-12-25T21:49:02.503Z,20.73
2017-12-25T21:51:30.075Z,19.37
2017-12-25T21:53:58.464Z,19.27
2017-12-25T21:56:26.784Z,18.25
2017-12-25T21:58:54.390Z,18.10
2017-12-25T22:01:21.989Z,18.15
2017-12-25T22:03:49.548Z,19.48
2017-12-25T22:06:17.108Z,18.05
2017-12-25T22:08:44.702Z,19.73
2017-12-25T22:11:12.259Z,20.08
2017-12-25T22:13:39.845Z,20.77
2017-12-25T22:16:07.448Z,22.70
2017-12-25T22:18:35.814Z,23.50
2017-12-25T22:21:03.382Z,23.87
2017-12-25T22:23:30.992Z,22.60
2017-12-25T22:25:58.590Z,22.77
2017-12-25T22:28:26.948Z,24.63
2017-12-25T22:30:54.550Z,24.73
2017-12-25T22:33:22.159Z,24.17
2017-12-25T22:35:49.717Z,25.52
2017-12-25T22:38:17.311Z,27.90
2017-12-25T22:40:45.628Z,27.33
2017-12-25T22:43:13.980Z,26.70
2017-12-25T22:45:41.549Z,25.42
2017-12-25T22:48:09.149Z,25.52
2017-12-25T22:50:36.750Z,28.65
2017-12-25T22:53:05.109Z,26.08
2017-12-25T22:55:32.661Z,27.35
2017-12-25T22:58:00.274Z,26.40
2017-12-25T23:00:27.866Z,27.98
2017-12-25T23:02:55.469Z,26.50
2017-12-25T23:05:23.828Z,25.77
2017-12-25T23:07:51.442Z,26.67
2017-12-25T23:10:19.036Z,24.70
2017-12-25T23:12:46.596Z,25.60
2017-12-25T23:15:14.205Z,23.75
2017-12-25T23:17:41.773Z,25.80
2017-12-25T23:20:09.366Z,23.50
2017-12-25T23:22:36.922Z,24.37
2017-12-25T23:25:04.554Z,24.95
2017-12-25T23:27:32.118Z,25.90
2017-12-25T23:29:59.682Z,25.05
2017-12-25T23:32:27.258Z,25.02
2017-12-25T23:34:54.864Z,23.40
2017-12-25T23:37:23.241Z,25.25
2017-12-25T23:39:50.812Z,23.12
2017-12-25T23:42:19.142Z,27.17
2017-12-25T23:44:46.742Z,28.67
2017-12-25T23:47:14.335Z,27.13
2017-12-25T23:49:41.890Z,29.12
2017-12-25T23:52:09.505Z,25.88
2017-12-25T23:54:37.066Z,28.75
2017-12-25T23:57:04.673Z,24.98
2017-12-25T23:59:32.246Z,24.60
